EHRDEHGG

Guest
Details From EHRD - Rotterdam The Hague
To EHGG - Eelde
Flight Number -
Tags decoded
Created
Modified
Stats Distance 105 nm / 194 km
Max Altitude 0 ft / 0 m
Waypoints 2
Social Downloads 4
Likes 0
Share VATSIM

Download

Looking for another format? Having issues loading an existing format? Contact us
Advertisement - Login to hide

Notes

Requested: EHRD EHGG

Route

EHRD EHGG

ID Type Via Altitude Latitude Longitude Leg Dist Tot Dist Heading (true) Name
O EHRD APT - 0 ft / 0 m 51.95747˚ 4.44166˚ - 0 nm - Rotterdam The Hague
O EHGG APT - 0 ft / 0 m 53.12103˚ 6.57707˚ 104 nm 104 nm 47° / 49° Eelde

Altitude Profile

Advertisement - Login to hide

EHRD

Details ICAO EHRD (RTM)
Name Rotterdam The Hague
Region Netherlands
Timezone Europe/Amsterdam (UTC+1.0)
Stats Elevation -15 ft / -5 m (AMSL)
Location 51.957468° 4.441662°
Runways 1
Magnetic Variation 1.048° E

METAR

EHRD 161655Z AUTO 28007KT 250V320 9999 FEW015CB 04/01 Q1015 TEMPO 6000 SHRAGS SCT020CB

Decode

TAF

TAF TAF EHRD 161104Z 1612/1718 30010KT 9999 SCT025 TEMPO 1612/1703 33012G22KT 6000 SHRAGS SCT020CB BKN030 BECMG 1700/1703 30005KT PROB30 TEMPO 1703/1712 7000 -SHRA SCT020TCU BECMG 1709/1712 23006KT BECMG 1715/1718 20010K

Decode

Departure Runways

ID Width Length Bearing (true) Bearing (mag) Surface Threshold Offset Overrun Length
06 148 ft / 45 m 7,201 ft / 2,195 m 56.93° 55.88° Asphalt 656 ft / 200 m 0 ft / 0 m
24 148 ft / 45 m 7,201 ft / 2,195 m 236.95° 235.90° Asphalt 656 ft / 200 m 0 ft / 0 m

EHGG

Details ICAO EHGG (GRQ)
Name Eelde
Region Netherlands
Timezone Europe/Amsterdam (UTC+1.0)
Stats Elevation 17 ft / 5 m (AMSL)
Location 53.121033° 6.577073°
Runways 2
Magnetic Variation 1.691° E

METAR

EHGG 161655Z AUTO 30007KT 270V330 9999 SCT014 FEW015CB SCT019 BKN023 03/02 Q1011 TEMPO 4500 SHRAGS

Decode

TAF

TAF EHGG 161113Z 1612/1718 31010KT 9999 SCT025 TEMPO 1612/1624 4500 SHRA SHRAGS SCT020CB BKN025 BECMG 1615/1618 28006KT PROB30 1700/1708 4000 BR PROB30 TEMPO 1707/1712 7000 -SHRA SCT015CB BECMG 1715/1718 20010KT

Decode

Destination Runways

ID Width Length Bearing (true) Bearing (mag) Surface Threshold Offset Overrun Length
01 148 ft / 45 m 4,918 ft / 1,499 m 8.73° 7.04° Asphalt 0 ft / 0 m 0 ft / 0 m
05 148 ft / 45 m 8,185 ft / 2,495 m 51.78° 50.09° Asphalt 0 ft / 0 m 98 ft / 30 m
19 148 ft / 45 m 4,918 ft / 1,499 m 188.74° 187.05° Asphalt 0 ft / 0 m 0 ft / 0 m
23 148 ft / 45 m 8,185 ft / 2,495 m 231.81° 230.12° Asphalt 0 ft / 0 m 98 ft / 30 m

Approach Navaids

Runway Type Ident Frequency Range Bearing (true) Bearing (mag) Slope Elevation
23 Localiser GRO 109.90 MHz 18 nm / 33 km 231.79° 230.10° - 17 ft / 5 m (AMSL)
23 Glidescope GRO 109.90 MHz 15 nm / 28 km 232.94° 231.25° 3.00° 17 ft / 5 m (AMSL)
23 DME GRO 109.90 MHz 18 nm / 33 km - - - 17 ft / 5 m (AMSL)

Popular Alternatives